createdAt,value
2018-12-02T00:00:05.652Z,89.62
2018-12-02T00:01:05.643Z,89.42
2018-12-02T00:02:05.632Z,89.77
2018-12-02T00:03:05.646Z,89.83
2018-12-02T00:04:05.624Z,90.14
2018-12-02T00:05:05.610Z,89.94
2018-12-02T00:06:05.593Z,90.19
2018-12-02T00:07:05.591Z,89.87
2018-12-02T00:08:05.568Z,90.19
2018-12-02T00:09:05.571Z,90.25
2018-12-02T00:10:05.545Z,90.08
2018-12-02T00:11:05.534Z,89.87
2018-12-02T00:12:05.532Z,90.29
2018-12-02T00:13:05.515Z,90.08
2018-12-02T00:14:05.519Z,90.29
2018-12-02T00:15:05.539Z,90.70
2018-12-02T00:16:05.481Z,90.29
2018-12-02T00:17:05.472Z,90.08
2018-12-02T00:18:05.466Z,90.60
2018-12-02T00:19:05.472Z,90.19
2018-12-02T00:20:05.441Z,90.04
2018-12-02T00:21:05.427Z,90.14
2018-12-02T00:22:05.418Z,89.83
2018-12-02T00:23:05.409Z,89.83
2018-12-02T00:24:05.414Z,89.87
2018-12-02T00:25:05.385Z,90.35
2018-12-02T00:26:05.381Z,90.35
2018-12-02T00:27:05.381Z,89.52
2018-12-02T00:28:05.360Z,89.48
2018-12-02T00:29:05.362Z,89.38
2018-12-02T00:30:05.331Z,89.07
2018-12-02T00:31:05.322Z,89.89
2018-12-02T00:32:05.318Z,89.83
2018-12-02T00:33:05.299Z,89.31
2018-12-02T00:34:05.300Z,89.31
2018-12-02T00:35:05.277Z,89.31
2018-12-02T00:36:05.269Z,90.04
2018-12-02T00:37:05.258Z,89.21
2018-12-02T00:38:05.251Z,89.21
2018-12-02T00:39:05.273Z,89.42
2018-12-02T00:40:05.226Z,89.21
2018-12-02T00:41:05.216Z,89.31
2018-12-02T00:42:05.202Z,89.73
2018-12-02T00:43:05.194Z,89.67
2018-12-02T00:44:05.181Z,89.77
2018-12-02T00:45:05.183Z,89.67
2018-12-02T00:46:05.161Z,89.67
2018-12-02T00:47:05.149Z,90.08
2018-12-02T00:48:05.139Z,89.67
2018-12-02T00:49:05.127Z,89.46
2018-12-02T00:50:05.133Z,89.56
2018-12-02T00:51:05.109Z,90.02
2018-12-02T00:52:05.095Z,89.67
2018-12-02T00:53:05.093Z,89.77
2018-12-02T00:54:05.080Z,90.23
2018-12-02T00:55:05.094Z,90.39
2018-12-02T00:56:05.055Z,90.19
2018-12-02T00:57:05.050Z,90.44
2018-12-02T00:58:05.034Z,90.60
2018-12-02T00:59:05.023Z,90.44
2018-12-02T01:00:05.010Z,90.23
2018-12-02T01:01:05.016Z,90.19
2018-12-02T01:02:04.988Z,90.12
2018-12-02T01:03:04.976Z,90.39
2018-12-02T01:04:04.968Z,90.64
2018-12-02T01:05:04.957Z,90.54
2018-12-02T01:06:04.961Z,90.19
2018-12-02T01:07:04.935Z,90.12
2018-12-02T01:08:04.924Z,90.12
2018-12-02T01:09:04.914Z,90.23
2018-12-02T01:10:04.901Z,90.08
2018-12-02T01:11:04.907Z,90.19
2018-12-02T01:12:04.883Z,90.33
2018-12-02T01:13:04.871Z,90.08
2018-12-02T01:14:04.861Z,89.98
2018-12-02T01:15:04.849Z,90.33
2018-12-02T01:16:04.850Z,90.29
2018-12-02T01:17:04.829Z,89.81
2018-12-02T01:18:04.819Z,90.44
2018-12-02T01:19:04.828Z,90.33
2018-12-02T01:20:04.874Z,90.44
2018-12-02T01:21:04.806Z,90.54
2018-12-02T01:22:04.778Z,90.39
2018-12-02T01:23:04.765Z,90.44
2018-12-02T01:24:04.754Z,90.29
2018-12-02T01:25:04.744Z,90.60
2018-12-02T01:26:04.745Z,90.39
2018-12-02T01:27:04.722Z,90.33
2018-12-02T01:28:04.718Z,90.08
2018-12-02T01:29:04.701Z,90.12
2018-12-02T01:30:04.687Z,90.08
2018-12-02T01:31:04.689Z,90.39
2018-12-02T01:32:04.681Z,90.23
2018-12-02T01:33:04.656Z,90.29
2018-12-02T01:34:04.644Z,90.44
2018-12-02T01:35:04.634Z,90.44
2018-12-02T01:36:04.636Z,90.54
2018-12-02T01:37:04.616Z,89.98
2018-12-02T01:38:04.603Z,90.12
2018-12-02T01:39:04.591Z,89.98
2018-12-02T01:40:04.584Z,89.87
2018-12-02T01:41:04.583Z,90.19
2018-12-02T01:42:04.560Z,90.12
2018-12-02T01:43:04.548Z,89.87
2018-12-02T01:44:04.538Z,89.77
2018-12-02T01:45:04.534Z,90.39
2018-12-02T01:46:04.536Z,89.77
2018-12-02T01:47:04.506Z,89.98
2018-12-02T01:48:04.495Z,89.77
2018-12-02T01:49:04.485Z,89.67
2018-12-02T01:50:04.496Z,89.67
2018-12-02T01:51:04.477Z,89.46
2018-12-02T01:52:04.498Z,89.67
2018-12-02T01:53:04.441Z,89.67
2018-12-02T01:54:04.435Z,89.77
2018-12-02T01:55:04.428Z,89.61
2018-12-02T01:56:04.446Z,89.36
2018-12-02T01:57:04.405Z,89.87
2018-12-02T01:58:04.397Z,89.98
2018-12-02T01:59:04.382Z,89.77
2018-12-02T02:00:04.392Z,89.67
2018-12-02T02:01:04.361Z,89.77
2018-12-02T02:02:04.358Z,89.77
2018-12-02T02:03:04.334Z,89.46
2018-12-02T02:04:04.330Z,89.87
2018-12-02T02:05:04.313Z,89.56
2018-12-02T02:06:04.306Z,89.46
2018-12-02T02:07:04.306Z,89.46
2018-12-02T02:08:04.282Z,89.36
2018-12-02T02:09:04.285Z,89.15
2018-12-02T02:10:04.260Z,89.98
2018-12-02T02:11:04.250Z,89.87
2018-12-02T02:12:04.272Z,89.98
2018-12-02T02:13:04.258Z,89.87
2018-12-02T02:14:04.225Z,89.87
2018-12-02T02:15:04.228Z,89.77
2018-12-02T02:16:04.198Z,90.08
2018-12-02T02:17:04.185Z,89.36
2018-12-02T02:18:04.194Z,89.46
2018-12-02T02:19:04.165Z,89.67
2018-12-02T02:20:04.167Z,89.21
2018-12-02T02:21:04.143Z,88.63
2018-12-02T02:22:04.185Z,88.94
2018-12-02T02:23:04.131Z,88.63
2018-12-02T02:24:04.110Z,88.94
2018-12-02T02:25:04.103Z,89.73
2018-12-02T02:26:04.090Z,88.90
2018-12-02T02:27:04.081Z,88.84
2018-12-02T02:28:04.081Z,88.79
2018-12-02T02:29:04.056Z,88.84
2018-12-02T02:30:04.047Z,88.79
2018-12-02T02:31:04.038Z,88.59
2018-12-02T02:32:04.031Z,88.48
2018-12-02T02:33:04.028Z,88.07
2018-12-02T02:34:04.004Z,87.66
2018-12-02T02:35:03.994Z,88.39
2018-12-02T02:36:03.987Z,88.28
2018-12-02T02:37:03.975Z,88.07
2018-12-02T02:38:03.973Z,87.87
2018-12-02T02:39:03.960Z,86.93
2018-12-02T02:40:03.939Z,87.51
2018-12-02T02:41:03.928Z,86.89
2018-12-02T02:42:03.917Z,87.20
2018-12-02T02:43:03.923Z,86.58
2018-12-02T02:44:03.895Z,86.99
2018-12-02T02:45:03.884Z,86.99
2018-12-02T02:46:03.874Z,86.89
2018-12-02T02:47:03.865Z,86.79
2018-12-02T02:48:03.865Z,86.68
2018-12-02T02:49:03.842Z,86.27
2018-12-02T02:50:03.832Z,86.99
2018-12-02T02:51:03.838Z,86.41
2018-12-02T02:52:03.810Z,87.04
2018-12-02T02:53:03.825Z,86.93
2018-12-02T02:54:03.790Z,87.28
2018-12-02T02:55:03.784Z,87.97
2018-12-02T02:56:03.769Z,88.69
2018-12-02T02:57:03.757Z,88.01
2018-12-02T02:58:03.758Z,88.21
2018-12-02T02:59:03.736Z,88.21
2018-12-02T03:00:03.725Z,88.11
2018-12-02T03:01:03.734Z,88.63
2018-12-02T03:02:03.703Z,88.21
2018-12-02T03:03:03.733Z,88.42
2018-12-02T03:04:03.680Z,88.84
2018-12-02T03:05:03.724Z,88.53
2018-12-02T03:06:03.660Z,88.67
2018-12-02T03:07:03.649Z,88.94
2018-12-02T03:08:03.639Z,88.94
2018-12-02T03:09:03.640Z,88.94
2018-12-02T03:10:03.656Z,89.04
2018-12-02T03:11:03.604Z,88.94
2018-12-02T03:12:03.593Z,88.94
2018-12-02T03:13:03.584Z,88.94
2018-12-02T03:14:03.587Z,89.15
2018-12-02T03:15:03.569Z,89.15
2018-12-02T03:16:03.554Z,88.94
2018-12-02T03:17:03.543Z,88.67
2018-12-02T03:18:03.531Z,88.84
2018-12-02T03:19:03.537Z,89.77
2018-12-02T03:20:03.512Z,89.36
2018-12-02T03:21:03.496Z,89.56
2018-12-02T03:22:03.489Z,89.56
2018-12-02T03:23:03.476Z,89.36
2018-12-02T03:24:03.482Z,89.46
2018-12-02T03:25:03.469Z,89.87
2018-12-02T03:26:03.445Z,89.77
2018-12-02T03:27:03.437Z,89.77
2018-12-02T03:28:03.424Z,89.87
2018-12-02T03:29:03.425Z,89.67
2018-12-02T03:30:03.408Z,89.67
2018-12-02T03:31:03.394Z,88.90
2018-12-02T03:32:03.395Z,88.84
2018-12-02T03:33:03.373Z,88.90
2018-12-02T03:34:03.390Z,88.39
2018-12-02T03:35:03.358Z,88.79
2018-12-02T03:36:03.347Z,88.79
2018-12-02T03:37:03.330Z,88.90
2018-12-02T03:38:03.320Z,88.48
2018-12-02T03:39:03.307Z,88.34
2018-12-02T03:40:03.313Z,87.93
2018-12-02T03:41:03.287Z,87.97
2018-12-02T03:42:03.286Z,88.24
2018-12-02T03:43:03.266Z,88.45
2018-12-02T03:44:03.263Z,87.72
2018-12-02T03:45:03.256Z,88.13
2018-12-02T03:46:03.233Z,88.03
2018-12-02T03:47:03.220Z,87.99
2018-12-02T03:48:03.244Z,88.03
2018-12-02T03:49:03.201Z,87.37
2018-12-02T03:50:03.200Z,87.20
2018-12-02T03:51:03.188Z,86.85
2018-12-02T03:52:03.168Z,87.37
2018-12-02T03:53:03.164Z,86.68
2018-12-02T03:54:03.150Z,86.75
2018-12-02T03:55:03.168Z,86.99
2018-12-02T03:56:03.130Z,86.96
2018-12-02T03:57:03.115Z,87.06
2018-12-02T03:58:03.104Z,87.16
2018-12-02T03:59:03.095Z,86.65
2018-12-02T04:00:03.086Z,86.85
2018-12-02T04:01:03.082Z,86.85
2018-12-02T04:02:03.059Z,86.65
2018-12-02T04:03:03.050Z,87.16
2018-12-02T04:04:03.038Z,86.96
2018-12-02T04:05:03.037Z,87.06
2018-12-02T04:06:03.028Z,87.06
2018-12-02T04:07:03.006Z,87.06
2018-12-02T04:08:02.995Z,86.75
2018-12-02T04:09:02.987Z,86.85
2018-12-02T04:10:02.975Z,86.54
2018-12-02T04:11:02.984Z,86.85
2018-12-02T04:12:02.954Z,87.06
2018-12-02T04:13:02.943Z,86.96
2018-12-02T04:14:02.934Z,86.54
2018-12-02T04:15:02.934Z,86.85
2018-12-02T04:16:02.928Z,86.65
2018-12-02T04:17:02.913Z,86.33
2018-12-02T04:18:02.891Z,86.44
2018-12-02T04:19:02.884Z,86.44
2018-12-02T04:20:02.866Z,86.75
2018-12-02T04:21:02.872Z,86.44
2018-12-02T04:22:02.848Z,86.75
2018-12-02T04:23:02.839Z,86.96
2018-12-02T04:24:02.823Z,86.33
2018-12-02T04:25:02.815Z,86.13
2018-12-02T04:26:02.824Z,85.78
2018-12-02T04:27:02.793Z,85.68
2018-12-02T04:28:02.786Z,85.68
2018-12-02T04:29:02.771Z,85.68
2018-12-02T04:30:02.760Z,85.36
2018-12-02T04:31:02.769Z,85.78
2018-12-02T04:32:02.741Z,85.78
2018-12-02T04:33:02.731Z,85.16
2018-12-02T04:34:02.728Z,85.16
2018-12-02T04:35:02.710Z,85.16
2018-12-02T04:36:02.707Z,85.16
2018-12-02T04:37:02.684Z,85.16
2018-12-02T04:38:02.673Z,84.74
2018-12-02T04:39:02.666Z,85.16
2018-12-02T04:40:02.663Z,85.05
2018-12-02T04:41:02.652Z,85.36
2018-12-02T04:42:02.636Z,85.50
2018-12-02T04:43:02.620Z,85.71
2018-12-02T04:44:02.619Z,86.13
2018-12-02T04:45:02.601Z,86.37
2018-12-02T04:46:02.601Z,86.33
2018-12-02T04:47:02.584Z,86.85
2018-12-02T04:48:02.568Z,86.79
2018-12-02T04:49:02.557Z,86.47
2018-12-02T04:50:02.547Z,87.14
2018-12-02T04:51:02.550Z,86.93
2018-12-02T04:52:02.523Z,87.66
2018-12-02T04:53:02.516Z,88.07
2018-12-02T04:54:02.509Z,87.45
2018-12-02T04:55:02.505Z,88.07
2018-12-02T04:56:02.495Z,88.07
2018-12-02T04:57:02.476Z,88.18
2018-12-02T04:58:02.460Z,88.32
2018-12-02T04:59:02.450Z,88.01
2018-12-02T05:00:02.437Z,88.07
2018-12-02T05:01:02.461Z,88.21
2018-12-02T05:02:02.419Z,88.28
2018-12-02T05:03:02.415Z,88.42
2018-12-02T05:04:02.450Z,88.07
2018-12-02T05:05:02.387Z,88.21
2018-12-02T05:06:02.374Z,88.07
2018-12-02T05:07:02.378Z,88.01
2018-12-02T05:08:02.355Z,88.07
2018-12-02T05:09:02.349Z,88.32
2018-12-02T05:10:02.333Z,88.07
2018-12-02T05:11:02.327Z,88.11
2018-12-02T05:12:02.353Z,87.87
2018-12-02T05:13:02.299Z,88.01
2018-12-02T05:14:02.290Z,88.11
2018-12-02T05:15:02.290Z,88.21
2018-12-02T05:16:02.267Z,88.11
2018-12-02T05:17:02.257Z,88.11
2018-12-02T05:18:02.257Z,88.11
2018-12-02T05:19:02.237Z,88.01
2018-12-02T05:20:02.229Z,88.21
2018-12-02T05:21:02.213Z,88.11
2018-12-02T05:22:02.202Z,87.90
2018-12-02T05:23:02.214Z,87.84
2018-12-02T05:24:02.182Z,88.53
2018-12-02T05:25:02.172Z,88.42
2018-12-02T05:26:02.161Z,88.32
2018-12-02T05:27:02.160Z,88.32
2018-12-02T05:28:02.152Z,88.11
2018-12-02T05:29:02.129Z,87.95
2018-12-02T05:30:02.119Z,87.70
2018-12-02T05:31:02.108Z,87.80
2018-12-02T05:32:02.097Z,88.11
2018-12-02T05:33:02.106Z,88.11
2018-12-02T05:34:02.076Z,87.70
2018-12-02T05:35:02.069Z,88.11
2018-12-02T05:36:02.055Z,88.11
2018-12-02T05:37:02.046Z,88.11
2018-12-02T05:38:02.046Z,87.90
2018-12-02T05:39:02.029Z,88.01
2018-12-02T05:40:02.014Z,88.21
2018-12-02T05:41:02.001Z,88.18
2018-12-02T05:42:01.994Z,87.38
2018-12-02T05:43:02.002Z,87.97
2018-12-02T05:44:01.969Z,88.01
2018-12-02T05:45:01.957Z,88.01
2018-12-02T05:46:01.947Z,88.11
2018-12-02T05:47:01.939Z,87.76
2018-12-02T05:48:01.938Z,87.90
2018-12-02T05:49:01.917Z,87.97
2018-12-02T05:50:01.901Z,87.97
2018-12-02T05:51:01.892Z,87.87
2018-12-02T05:52:01.883Z,87.35
2018-12-02T05:53:01.884Z,87.80
2018-12-02T05:54:01.860Z,87.87
2018-12-02T05:55:01.851Z,88.07
2018-12-02T05:56:01.842Z,88.01
2018-12-02T05:57:01.854Z,87.97
2018-12-02T05:58:01.836Z,88.11
2018-12-02T05:59:01.807Z,87.45
2018-12-02T06:00:01.796Z,87.35
2018-12-02T06:01:01.787Z,87.04
2018-12-02T06:02:01.774Z,87.07
2018-12-02T06:03:01.774Z,86.62
2018-12-02T06:04:01.756Z,87.04
2018-12-02T06:05:01.748Z,86.47
2018-12-02T06:06:01.735Z,86.93
2018-12-02T06:07:01.726Z,86.47
2018-12-02T06:08:01.744Z,86.58
2018-12-02T06:09:01.703Z,86.07
2018-12-02T06:10:01.691Z,85.75
2018-12-02T06:11:01.680Z,85.24
2018-12-02T06:12:01.673Z,85.19
2018-12-02T06:13:01.658Z,85.30
2018-12-02T06:14:01.657Z,85.44
2018-12-02T06:15:01.638Z,85.03
2018-12-02T06:16:01.627Z,85.30
2018-12-02T06:17:01.615Z,84.99
2018-12-02T06:18:01.608Z,84.99
2018-12-02T06:19:01.611Z,84.78
2018-12-02T06:20:04.702Z,84.99
2018-12-02T06:21:01.574Z,84.88
2018-12-02T06:22:01.564Z,84.37
2018-12-02T06:23:01.555Z,83.95
2018-12-02T06:24:01.578Z,84.68
2018-12-02T06:25:01.530Z,83.95
2018-12-02T06:26:02.117Z,84.27
2018-12-02T06:27:01.510Z,84.27
2018-12-02T06:28:01.500Z,84.68
2018-12-02T06:29:01.490Z,84.58
2018-12-02T06:30:01.488Z,84.37
2018-12-02T06:31:01.479Z,84.58
2018-12-02T06:32:01.454Z,84.58
2018-12-02T06:33:01.443Z,84.58
2018-12-02T06:34:01.433Z,83.50
2018-12-02T06:35:01.434Z,83.50
2018-12-02T06:36:01.412Z,82.67
2018-12-02T06:37:01.403Z,82.64
2018-12-02T06:38:01.389Z,83.09
2018-12-02T06:39:01.381Z,82.98
2018-12-02T06:40:01.384Z,82.43
2018-12-02T06:41:01.362Z,82.32
2018-12-02T06:42:01.351Z,82.22
2018-12-02T06:43:01.338Z,82.95
2018-12-02T06:44:01.328Z,82.84
2018-12-02T06:45:01.332Z,82.53
2018-12-02T06:46:01.347Z,82.32
2018-12-02T06:47:01.297Z,82.22
2018-12-02T06:48:01.286Z,81.70
2018-12-02T06:49:01.274Z,81.29
2018-12-02T06:50:01.295Z,81.29
2018-12-02T06:51:01.252Z,81.29
2018-12-02T06:52:01.242Z,81.19
2018-12-02T06:53:01.239Z,81.49
2018-12-02T06:54:01.279Z,81.29
2018-12-02T06:55:01.264Z,81.35
2018-12-02T06:56:01.211Z,81.25
2018-12-02T06:57:01.190Z,81.35
2018-12-02T06:58:01.179Z,81.39
2018-12-02T06:59:01.169Z,81.46
2018-12-02T07:00:01.174Z,81.49
2018-12-02T07:01:01.160Z,81.39
2018-12-02T07:02:01.136Z,81.70
2018-12-02T07:03:01.126Z,81.25
2018-12-02T07:04:01.115Z,81.29
2018-12-02T07:05:01.102Z,81.25
2018-12-02T07:06:01.115Z,81.25
2018-12-02T07:07:01.083Z,81.05
2018-12-02T07:08:01.072Z,81.25
2018-12-02T07:09:01.063Z,81.29
2018-12-02T07:10:01.057Z,81.05
2018-12-02T07:11:01.051Z,81.25
2018-12-02T07:12:01.029Z,81.15
2018-12-02T07:13:01.022Z,81.25
2018-12-02T07:14:01.008Z,81.25
2018-12-02T07:15:01.000Z,81.25
2018-12-02T07:16:01.010Z,81.25
2018-12-02T07:17:00.983Z,81.46
2018-12-02T07:18:00.985Z,80.57
2018-12-02T07:19:00.953Z,80.53
2018-12-02T07:20:00.945Z,80.11
2018-12-02T07:21:00.953Z,80.32
2018-12-02T07:22:00.924Z,79.60
2018-12-02T07:23:00.923Z,79.60
2018-12-02T07:24:00.922Z,79.70
2018-12-02T07:25:00.891Z,79.91
2018-12-02T07:26:00.892Z,79.60
2018-12-02T07:27:00.870Z,80.22
2018-12-02T07:28:00.861Z,79.70
2018-12-02T07:29:00.850Z,80.01
2018-12-02T07:30:00.836Z,79.80
2018-12-02T07:31:00.857Z,79.91
2018-12-02T07:32:00.817Z,79.60
2018-12-02T07:33:00.806Z,79.70
2018-12-02T07:34:00.796Z,79.91
2018-12-02T07:35:00.785Z,79.80
2018-12-02T07:36:00.773Z,79.70
2018-12-02T07:37:00.776Z,79.91
2018-12-02T07:38:00.773Z,80.01
2018-12-02T07:39:00.746Z,79.29
2018-12-02T07:40:00.731Z,79.39
2018-12-02T07:41:00.727Z,79.70
2018-12-02T07:42:00.735Z,79.80
2018-12-02T07:43:00.699Z,79.70
2018-12-02T07:44:00.690Z,79.80
2018-12-02T07:45:00.691Z,79.91
2018-12-02T07:46:00.670Z,79.91
2018-12-02T07:47:00.675Z,79.91
2018-12-02T07:48:00.647Z,79.91
2018-12-02T07:49:00.750Z,79.80
2018-12-02T07:50:00.625Z,79.74
2018-12-02T07:51:00.614Z,80.11
2018-12-02T07:52:00.620Z,79.84
2018-12-02T07:53:00.594Z,80.15
2018-12-02T07:54:00.586Z,80.36
2018-12-02T07:55:00.572Z,80.36
2018-12-02T07:56:00.563Z,80.22
2018-12-02T07:57:00.562Z,80.22
2018-12-02T07:58:00.544Z,80.05
2018-12-02T07:59:00.534Z,80.26
2018-12-02T08:00:00.518Z,80.22
2018-12-02T08:01:00.509Z,80.11
2018-12-02T08:02:00.530Z,79.91
2018-12-02T08:03:00.486Z,79.94
2018-12-02T08:04:00.484Z,79.94
2018-12-02T08:05:00.469Z,79.70
2018-12-02T08:06:00.459Z,79.60
2018-12-02T08:07:00.445Z,80.15
2018-12-02T08:08:00.445Z,80.22
2018-12-02T08:09:00.423Z,80.05
2018-12-02T08:10:00.427Z,79.94
2018-12-02T08:11:00.415Z,80.36
2018-12-02T08:12:00.393Z,80.36
2018-12-02T08:13:00.393Z,80.11
2018-12-02T08:14:00.377Z,80.15
2018-12-02T08:15:00.362Z,80.26
2018-12-02T08:16:00.346Z,80.01
2018-12-02T08:17:00.336Z,80.11
2018-12-02T08:18:00.338Z,80.26
2018-12-02T08:19:00.314Z,80.22
2018-12-02T08:20:00.391Z,80.32
2018-12-02T08:21:00.295Z,80.57
2018-12-02T08:22:00.397Z,80.32
2018-12-02T08:23:00.657Z,79.70
2018-12-02T08:24:00.270Z,80.01
2018-12-02T08:25:00.254Z,80.26
2018-12-02T08:26:00.251Z,80.22
2018-12-02T08:27:00.238Z,80.22
2018-12-02T08:28:00.280Z,79.84
2018-12-02T08:29:00.209Z,80.43
2018-12-02T08:30:00.196Z,80.01
2018-12-02T08:31:00.187Z,79.74
2018-12-02T08:32:00.177Z,80.01
2018-12-02T08:33:00.215Z,79.70
2018-12-02T08:34:00.197Z,79.91
2018-12-02T08:35:00.144Z,80.01
2018-12-02T08:36:00.137Z,79.80
2018-12-02T08:37:00.124Z,79.36
2018-12-02T08:38:00.112Z,79.91
2018-12-02T08:39:00.111Z,79.19
2018-12-02T08:40:00.090Z,79.25
2018-12-02T08:41:00.081Z,79.80
2018-12-02T08:42:00.070Z,79.56
2018-12-02T08:43:00.061Z,79.46
2018-12-02T08:44:00.060Z,79.46
2018-12-02T08:45:00.040Z,79.52
2018-12-02T08:46:00.041Z,79.46
2018-12-02T08:47:00.019Z,79.56
2018-12-02T08:48:00.011Z,79.25
2018-12-02T08:49:01.126Z,79.05
2018-12-02T08:49:59.990Z,79.05
2018-12-02T08:50:59.989Z,78.80
2018-12-02T08:52:00.030Z,79.22
2018-12-02T08:52:59.959Z,78.59
2018-12-02T08:53:59.952Z,78.28
2018-12-02T08:54:59.948Z,78.08
2018-12-02T08:55:59.962Z,77.87
2018-12-02T08:56:59.931Z,78.91
2018-12-02T08:57:59.899Z,79.01
2018-12-02T08:58:59.956Z,78.91
2018-12-02T08:59:59.912Z,78.08
2018-12-02T09:00:59.904Z,78.08
2018-12-02T09:01:59.863Z,78.91
2018-12-02T09:02:59.850Z,78.59
2018-12-02T09:03:59.872Z,78.08
2018-12-02T09:04:59.855Z,78.28
2018-12-02T09:05:59.844Z,77.77
2018-12-02T09:06:59.841Z,78.18
2018-12-02T09:07:59.806Z,77.67
2018-12-02T09:08:59.785Z,78.18
2018-12-02T09:09:59.815Z,77.67
2018-12-02T09:10:59.777Z,78.05
2018-12-02T09:11:59.754Z,77.84
2018-12-02T09:12:59.742Z,77.53
2018-12-02T09:13:59.745Z,77.63
2018-12-02T09:14:59.730Z,77.11
2018-12-02T09:15:59.710Z,76.98
2018-12-02T09:17:00.818Z,77.08
2018-12-02T09:17:59.690Z,76.67
2018-12-02T09:18:59.683Z,76.87
2018-12-02T09:19:59.684Z,76.56
2018-12-02T09:20:59.656Z,76.56
2018-12-02T09:21:59.644Z,76.56
2018-12-02T09:22:59.633Z,76.46
2018-12-02T09:23:59.705Z,76.35
2018-12-02T09:24:59.649Z,76.42
2018-12-02T09:25:59.600Z,76.25
2018-12-02T09:26:59.592Z,76.46
2018-12-02T09:27:59.585Z,76.77
2018-12-02T09:28:59.611Z,76.42
2018-12-02T09:29:59.558Z,76.77
2018-12-02T09:30:59.596Z,76.25
2018-12-02T09:31:59.537Z,76.42
2018-12-02T09:32:59.526Z,75.95
2018-12-02T09:33:59.516Z,75.91
2018-12-02T09:34:59.504Z,76.12
2018-12-02T09:35:59.507Z,76.01
2018-12-02T09:36:59.492Z,75.91
2018-12-02T09:37:59.471Z,76.01
2018-12-02T09:38:59.464Z,75.81
2018-12-02T09:39:59.448Z,75.91
2018-12-02T09:40:59.657Z,76.12
2018-12-02T09:41:59.432Z,76.04
2018-12-02T09:42:59.432Z,76.01
2018-12-02T09:43:59.406Z,75.91
2018-12-02T09:44:59.395Z,75.91
2018-12-02T09:45:59.413Z,75.91
2018-12-02T09:46:59.388Z,75.81
2018-12-02T09:47:59.364Z,76.01
2018-12-02T09:48:59.351Z,76.21
2018-12-02T09:49:59.346Z,75.91
2018-12-02T09:50:59.343Z,75.81
2018-12-02T09:51:59.324Z,75.81
2018-12-02T09:52:59.309Z,75.70
2018-12-02T09:53:59.298Z,75.77
2018-12-02T09:54:59.285Z,75.77
2018-12-02T09:55:59.286Z,75.87
2018-12-02T09:56:59.264Z,75.77
2018-12-02T09:57:59.259Z,75.77
2018-12-02T09:58:59.278Z,75.67
2018-12-02T09:59:59.241Z,75.56
2018-12-02T10:00:59.245Z,75.87
2018-12-02T10:01:59.214Z,75.77
2018-12-02T10:02:59.207Z,75.56
2018-12-02T10:03:59.212Z,75.77
2018-12-02T10:04:59.183Z,75.87
2018-12-02T10:05:59.202Z,75.77
2018-12-02T10:06:59.159Z,75.77
2018-12-02T10:07:59.151Z,75.98
2018-12-02T10:08:59.638Z,75.77
2018-12-02T10:09:59.205Z,75.67
2018-12-02T10:10:59.152Z,75.98
2018-12-02T10:11:59.103Z,75.67
2018-12-02T10:12:59.093Z,75.73
2018-12-02T10:13:59.081Z,75.73
2018-12-02T10:14:59.086Z,75.63
2018-12-02T10:15:59.060Z,75.73
2018-12-02T10:16:59.061Z,75.43
2018-12-02T10:17:59.046Z,75.43
2018-12-02T10:18:59.027Z,75.39
2018-12-02T10:19:59.014Z,75.53
2018-12-02T10:20:59.007Z,75.32
2018-12-02T10:21:59.195Z,75.39
2018-12-02T10:22:58.991Z,75.49
2018-12-02T10:23:58.973Z,75.49
2018-12-02T10:24:58.959Z,74.88
2018-12-02T10:25:58.953Z,74.98
2018-12-02T10:26:59.184Z,75.08
2018-12-02T10:27:58.933Z,74.77
2018-12-02T10:28:58.931Z,74.84
2018-12-02T10:29:58.909Z,74.57
2018-12-02T10:30:58.896Z,74.53
2018-12-02T10:31:58.903Z,74.53
2018-12-02T10:32:58.875Z,74.74
2018-12-02T10:33:58.864Z,74.19
2018-12-02T10:34:58.854Z,74.08
2018-12-02T10:35:58.841Z,74.29
2018-12-02T10:36:58.868Z,74.02
2018-12-02T10:37:58.841Z,74.19
2018-12-02T10:38:58.813Z,74.19
2018-12-02T10:39:58.798Z,74.43
2018-12-02T10:40:58.791Z,74.60
2018-12-02T10:41:58.780Z,74.08
2018-12-02T10:42:59.177Z,74.19
2018-12-02T10:43:58.759Z,74.22
2018-12-02T10:44:58.749Z,74.08
2018-12-02T10:45:58.745Z,74.19
2018-12-02T10:46:58.726Z,73.68
2018-12-02T10:47:59.195Z,73.68
2018-12-02T10:48:58.706Z,73.98
2018-12-02T10:49:58.710Z,73.98
2018-12-02T10:50:58.683Z,74.19
2018-12-02T10:51:58.688Z,74.29
2018-12-02T10:52:58.672Z,74.19
2018-12-02T10:53:58.651Z,74.19
2018-12-02T10:54:58.641Z,74.08
2018-12-02T10:55:58.638Z,73.68
2018-12-02T10:56:58.619Z,73.68
2018-12-02T10:57:58.617Z,73.88
2018-12-02T10:58:58.598Z,73.98
2018-12-02T10:59:58.592Z,74.29
2018-12-02T11:00:58.577Z,73.98
2018-12-02T11:01:58.570Z,73.78
2018-12-02T11:02:58.565Z,73.98
2018-12-02T11:03:58.552Z,73.57
2018-12-02T11:04:58.537Z,74.08
2018-12-02T11:05:58.546Z,73.88
2018-12-02T11:06:58.513Z,74.08
2018-12-02T11:07:58.512Z,74.19
2018-12-02T11:08:58.489Z,74.19
2018-12-02T11:09:58.481Z,74.40
2018-12-02T11:10:58.478Z,74.40
2018-12-02T11:11:58.469Z,74.08
2018-12-02T11:12:58.475Z,74.40
2018-12-02T11:13:58.436Z,74.50
2018-12-02T11:14:58.429Z,74.19
2018-12-02T11:15:58.428Z,73.98
2018-12-02T11:16:58.406Z,74.19
2018-12-02T11:17:58.407Z,74.40
2018-12-02T11:18:58.388Z,74.60
2018-12-02T11:19:58.382Z,74.80
2018-12-02T11:20:59.148Z,74.87
2018-12-02T11:21:58.350Z,75.18
2018-12-02T11:22:58.359Z,74.98
2018-12-02T11:23:58.341Z,75.18
2018-12-02T11:24:58.325Z,75.18
2018-12-02T11:25:58.323Z,74.67
2018-12-02T11:26:58.300Z,75.08
2018-12-02T11:27:58.292Z,74.84
2018-12-02T11:28:58.290Z,74.98
2018-12-02T11:29:58.266Z,74.53
2018-12-02T11:30:58.265Z,74.26
2018-12-02T11:31:58.359Z,74.15
2018-12-02T11:32:58.242Z,74.36
2018-12-02T11:33:58.257Z,74.15
2018-12-02T11:34:58.272Z,74.26
2018-12-02T11:35:59.268Z,73.91
2018-12-02T11:36:59.133Z,74.05
2018-12-02T11:38:01.235Z,74.53
2018-12-02T11:38:58.769Z,74.15
2018-12-02T11:39:58.160Z,74.02
2018-12-02T11:40:59.153Z,74.12
2018-12-02T11:41:58.157Z,74.12
2018-12-02T11:42:58.279Z,73.91
2018-12-02T11:43:58.373Z,74.22
2018-12-02T11:45:00.714Z,74.46
2018-12-02T11:45:58.714Z,74.57
2018-12-02T11:46:58.096Z,74.33
2018-12-02T11:48:00.124Z,74.43
2018-12-02T11:48:58.084Z,74.02
2018-12-02T11:49:58.055Z,74.22
2018-12-02T11:50:58.081Z,73.91
2018-12-02T11:51:58.032Z,74.12
2018-12-02T11:52:58.024Z,74.12
2018-12-02T11:53:58.050Z,74.02
2018-12-02T11:54:58.002Z,74.12
2018-12-02T11:55:58.003Z,74.12
2018-12-02T11:56:57.979Z,74.22
2018-12-02T11:57:57.988Z,74.02
2018-12-02T11:58:58.660Z,74.53
2018-12-02T11:59:57.988Z,74.63
2018-12-02T12:00:57.957Z,74.43
2018-12-02T12:01:57.960Z,74.36
2018-12-02T12:02:57.921Z,74.46
2018-12-02T12:03:57.907Z,74.74
2018-12-02T12:04:57.917Z,74.95
2018-12-02T12:05:57.884Z,74.95
2018-12-02T12:06:57.887Z,74.84
2018-12-02T12:07:57.864Z,74.84
2018-12-02T12:08:57.850Z,74.95
2018-12-02T12:09:57.901Z,74.95
2018-12-02T12:10:57.832Z,75.25
2018-12-02T12:11:57.821Z,75.35
2018-12-02T12:12:57.828Z,75.35
2018-12-02T12:13:57.808Z,75.35
2018-12-02T12:14:57.804Z,75.35
2018-12-02T12:15:57.777Z,75.46
2018-12-02T12:16:57.769Z,75.35
2018-12-02T12:17:57.759Z,75.76
2018-12-02T12:18:57.746Z,75.67
2018-12-02T12:19:57.792Z,75.97
2018-12-02T12:20:57.754Z,76.18
2018-12-02T12:21:57.712Z,76.28
2018-12-02T12:22:57.712Z,76.07
2018-12-02T12:23:57.691Z,76.18
2018-12-02T12:24:57.706Z,76.42
2018-12-02T12:25:57.719Z,76.69
2018-12-02T12:26:57.663Z,76.18
2018-12-02T12:27:57.649Z,76.90
2018-12-02T12:28:57.666Z,76.48
2018-12-02T12:29:57.643Z,76.73
2018-12-02T12:30:57.626Z,77.41
2018-12-02T12:31:57.656Z,77.03
2018-12-02T12:32:57.610Z,77.75
2018-12-02T12:33:57.591Z,77.65
2018-12-02T12:34:57.575Z,77.65
2018-12-02T12:35:57.583Z,77.65
2018-12-02T12:36:57.581Z,77.24
2018-12-02T12:37:57.570Z,77.24
2018-12-02T12:38:57.544Z,77.96
2018-12-02T12:39:57.547Z,77.45
2018-12-02T12:40:57.553Z,78.06
2018-12-02T12:41:57.508Z,78.47
2018-12-02T12:42:57.494Z,78.37
2018-12-02T12:43:57.482Z,78.58
2018-12-02T12:44:57.469Z,77.65
2018-12-02T12:45:57.524Z,78.58
2018-12-02T12:46:57.448Z,78.89
2018-12-02T12:47:57.448Z,78.82
2018-12-02T12:48:57.441Z,78.89
2018-12-02T12:49:57.445Z,79.40
2018-12-02T12:50:57.428Z,79.30
2018-12-02T12:51:57.407Z,79.44